• Join FlightAware (Why Join?)
  • Login
  • US Flag 
07:03AM EDT


 

Airport Tracker/Info


-or-


 

Live Flight TrackerFlight Track Log ✈ KAP17 ✈ 13-May-2013 ✈ KLEB - KBOS

Flight Track Log - Related Links

Times and Time Zones

All times are in EDT time to prevent confusion due to time zone crossing. See the KAP17 flight status page for this flight to view local times or setup timezone preferences in your user account.

Time Position Orientation Groundspeed Altitude Reporting Facility
EDT Latitude Longitude Course Direction KTS MPH feet Rate Location/Type
06:18AM 43.6361 -72.3969 144° Southeast 156 180 7,000  Level Boston Center
06:19AM 43.6569 -72.4486 299° West 156 180 7,000  Level Boston Center
06:20AM 43.6778 -72.4975 301° West 156 180 7,000 -1,800 Level Boston Center
06:21AM 43.5903 -72.2481 116° Southeast 156 180 3,400 -1,500 Descending Boston Center
06:22AM 43.5981 -72.0981 144° Southeast  Level FlightAware Approximate
06:22AM 43.5858 -72.1878 96° East 156 180 4,100  Level Boston Center
06:23AM 43.5794 -72.1247 98° East 156 180 4,500 480 Climbing Boston Center
06:24AM 43.5731 -72.0619 98° East 162 186 5,100 600 Climbing Boston Center
06:25AM 43.5458 -72.0161 129° Southeast 156 180 5,800 420 Climbing Boston Center
06:26AM 43.5122 -71.9736 137° Southeast 156 180 6,000 360 Climbing Boston Center
06:27AM 43.4767 -71.9308 139° Southeast 167 192 6,600 420 Climbing Boston Center
06:28AM 43.4389 -71.8853 139° Southeast 172 198 6,900 120 Climbing Boston Center
06:29AM 43.3992 -71.8286 134° Southeast 191 220 6,900  Level Boston Center
06:30AM 43.3633 -71.7806 136° Southeast 191 220 6,900  Level Boston Center
06:31AM 43.3256 -71.7236 132° Southeast 196 226 6,900  Level Boston Center
06:32AM 43.2897 -71.6786 138° Southeast 196 226 6,900  Level Boston Center
06:33AM 43.2458 -71.6278 140° Southeast 191 220 6,900  Level Boston Center
06:34AM 43.2036 -71.5828 142° Southeast 186 214 6,900  Level Boston Center
06:35AM 43.1597 -71.5378 143° Southeast 192 221 6,900  Level Boston Center
06:36AM 43.1239 -71.4986 141° Southeast 192 221 7,000 -120 Climbing Boston Center
06:37AM 43.0775 -71.4508 143° Southeast 192 221 6,700 -360 Descending Boston Center
06:39AM 42.9833 -71.3500 142° Southeast 197 227 6,000 -240 Descending KA90
06:40AM 42.9500 -71.3000 132° Southeast 191 220 6,000  Level KA90
06:41AM 42.9000 -71.2667 154° Southeast 184 212 6,000  Level KA90
06:42AM 42.8667 -71.2167 132° Southeast 185 213 6,000  Level KA90
06:43AM 42.8167 -71.1833 154° Southeast 180 207 6,000  Level KA90
06:44AM 42.7833 -71.1333 132° Southeast 176 203 6,000  Level KA90
06:45AM 42.7500 -71.1000 144° Southeast 172 198 6,000  Level KA90
06:46AM 42.7000 -71.0667 154° Southeast 177 204 6,000  Level KA90
06:47AM 42.6667 -71.0167 132° Southeast 177 204 6,000 -300 Level KA90
06:48AM 42.6167 -70.9833 154° Southeast 182 209 5,500 -600 Descending KA90
06:49AM 42.5667 -70.9833 180° South 159 183 4,800 -780 Descending KA90
06:50AM 42.5333 -70.9833 180° South 164 189 3,900 -960 Descending KA90
06:51AM 42.4833 -70.9667 166° South 148 170 2,900 -1,020 Descending KA90
06:52AM 42.4500 -70.9667 180° South 128 147 1,900 -900 Descending KA90
06:53AM 42.4167 -70.9833 200° South 130 150 1,200 -780 Descending KA90
06:54AM 42.4000 -70.9833 180° South 111 128 500 -720 Descending KA90
06:56AM 42.3630 -71.0064 172° South  Level Estimated
07:03AM 42.3630 -71.0064 172° South  Level Estimated